sensor_id;sensor_type;location;lat;lon;timestamp;P1;durP1;ratioP1;P2;durP2;ratioP2
21905;SDS011;11117;48.644;9.006;2022-09-13T00:00:29;4.13;;;2.13;;
21905;SDS011;11117;48.644;9.006;2022-09-13T00:02:54;7.60;;;2.30;;
21905;SDS011;11117;48.644;9.006;2022-09-13T00:05:20;2.30;;;2.10;;
21905;SDS011;11117;48.644;9.006;2022-09-13T00:07:46;3.47;;;2.07;;
21905;SDS011;11117;48.644;9.006;2022-09-13T00:10:13;5.67;;;2.00;;
21905;SDS011;11117;48.644;9.006;2022-09-13T00:12:38;2.83;;;2.20;;
21905;SDS011;11117;48.644;9.006;2022-09-13T00:15:04;3.83;;;2.07;;
21905;SDS011;11117;48.644;9.006;2022-09-13T00:17:30;3.00;;;1.93;;
21905;SDS011;11117;48.644;9.006;2022-09-13T00:19:56;3.60;;;2.40;;
21905;SDS011;11117;48.644;9.006;2022-09-13T00:22:21;3.77;;;2.10;;
21905;SDS011;11117;48.644;9.006;2022-09-13T00:24:47;8.10;;;2.30;;
21905;SDS011;11117;48.644;9.006;2022-09-13T00:27:13;3.13;;;2.70;;
21905;SDS011;11117;48.644;9.006;2022-09-13T00:29:38;6.40;;;2.30;;
21905;SDS011;11117;48.644;9.006;2022-09-13T00:32:04;3.43;;;2.30;;
21905;SDS011;11117;48.644;9.006;2022-09-13T00:34:29;3.90;;;2.50;;
21905;SDS011;11117;48.644;9.006;2022-09-13T00:36:55;5.30;;;2.73;;
21905;SDS011;11117;48.644;9.006;2022-09-13T00:39:21;8.10;;;2.60;;
21905;SDS011;11117;48.644;9.006;2022-09-13T00:41:47;4.47;;;2.60;;
21905;SDS011;11117;48.644;9.006;2022-09-13T00:47:20;4.40;;;2.77;;
21905;SDS011;11117;48.644;9.006;2022-09-13T00:50:05;3.23;;;2.70;;
21905;SDS011;11117;48.644;9.006;2022-09-13T00:52:35;3.57;;;2.80;;
21905;SDS011;11117;48.644;9.006;2022-09-13T00:55:06;5.53;;;2.90;;
21905;SDS011;11117;48.644;9.006;2022-09-13T00:57:37;4.13;;;2.60;;
21905;SDS011;11117;48.644;9.006;2022-09-13T01:00:08;3.80;;;2.90;;
21905;SDS011;11117;48.644;9.006;2022-09-13T01:02:41;5.30;;;2.87;;
21905;SDS011;11117;48.644;9.006;2022-09-13T01:05:10;5.57;;;3.20;;
21905;SDS011;11117;48.644;9.006;2022-09-13T01:07:38;6.17;;;3.03;;
21905;SDS011;11117;48.644;9.006;2022-09-13T01:10:04;6.30;;;2.90;;
21905;SDS011;11117;48.644;9.006;2022-09-13T01:15:03;4.27;;;2.73;;
21905;SDS011;11117;48.644;9.006;2022-09-13T01:17:29;10.30;;;3.00;;
21905;SDS011;11117;48.644;9.006;2022-09-13T01:19:57;5.97;;;3.13;;
21905;SDS011;11117;48.644;9.006;2022-09-13T01:22:38;3.83;;;2.87;;
21905;SDS011;11117;48.644;9.006;2022-09-13T01:39:23;8.00;;;3.00;;
21905;SDS011;11117;48.644;9.006;2022-09-13T01:47:53;5.90;;;2.77;;
21905;SDS011;11117;48.644;9.006;2022-09-13T01:50:30;5.13;;;3.00;;
21905;SDS011;11117;48.644;9.006;2022-09-13T01:58:26;5.97;;;3.20;;
21905;SDS011;11117;48.644;9.006;2022-09-13T02:01:13;4.67;;;2.97;;
21905;SDS011;11117;48.644;9.006;2022-09-13T02:06:13;4.60;;;3.13;;
21905;SDS011;11117;48.644;9.006;2022-09-13T02:08:53;4.97;;;3.07;;
21905;SDS011;11117;48.644;9.006;2022-09-13T02:11:21;5.60;;;2.80;;
21905;SDS011;11117;48.644;9.006;2022-09-13T02:14:05;7.30;;;3.00;;
21905;SDS011;11117;48.644;9.006;2022-09-13T02:17:02;3.53;;;2.80;;
21905;SDS011;11117;48.644;9.006;2022-09-13T02:19:40;4.63;;;2.73;;
21905;SDS011;11117;48.644;9.006;2022-09-13T02:22:24;5.03;;;3.23;;
21905;SDS011;11117;48.644;9.006;2022-09-13T02:24:56;6.93;;;2.90;;
21905;SDS011;11117;48.644;9.006;2022-09-13T02:27:27;5.50;;;2.90;;
21905;SDS011;11117;48.644;9.006;2022-09-13T02:29:57;7.10;;;2.97;;
21905;SDS011;11117;48.644;9.006;2022-09-13T02:35:25;5.20;;;3.30;;
21905;SDS011;11117;48.644;9.006;2022-09-13T02:37:56;4.80;;;3.57;;
21905;SDS011;11117;48.644;9.006;2022-09-13T02:40:38;6.43;;;3.47;;
21905;SDS011;11117;48.644;9.006;2022-09-13T02:43:16;6.33;;;3.13;;
21905;SDS011;11117;48.644;9.006;2022-09-13T02:45:51;4.37;;;3.00;;
21905;SDS011;11117;48.644;9.006;2022-09-13T02:48:39;5.30;;;3.30;;
21905;SDS011;11117;48.644;9.006;2022-09-13T02:53:54;4.40;;;2.80;;
21905;SDS011;11117;48.644;9.006;2022-09-13T02:56:42;4.57;;;2.87;;
21905;SDS011;11117;48.644;9.006;2022-09-13T02:59:30;3.67;;;3.30;;
21905;SDS011;11117;48.644;9.006;2022-09-13T03:02:01;5.97;;;3.00;;
21905;SDS011;11117;48.644;9.006;2022-09-13T03:04:32;6.23;;;3.30;;
21905;SDS011;11117;48.644;9.006;2022-09-13T03:06:59;4.37;;;3.10;;
21905;SDS011;11117;48.644;9.006;2022-09-13T03:09:25;4.53;;;3.50;;
21905;SDS011;11117;48.644;9.006;2022-09-13T03:12:04;10.30;;;3.73;;
21905;SDS011;11117;48.644;9.006;2022-09-13T03:23:11;5.27;;;3.43;;
21905;SDS011;11117;48.644;9.006;2022-09-13T03:31:48;9.13;;;3.47;;
21905;SDS011;11117;48.644;9.006;2022-09-13T03:37:35;5.00;;;3.47;;
21905;SDS011;11117;48.644;9.006;2022-09-13T03:40:10;6.47;;;3.20;;
21905;SDS011;11117;48.644;9.006;2022-09-13T03:42:49;7.07;;;3.63;;
21905;SDS011;11117;48.644;9.006;2022-09-13T03:45:20;5.43;;;3.43;;
21905;SDS011;11117;48.644;9.006;2022-09-13T03:47:51;12.70;;;3.90;;
21905;SDS011;11117;48.644;9.006;2022-09-13T03:50:19;5.13;;;3.70;;
21905;SDS011;11117;48.644;9.006;2022-09-13T03:52:47;5.57;;;3.70;;
21905;SDS011;11117;48.644;9.006;2022-09-13T03:55:19;3.90;;;3.47;;
21905;SDS011;11117;48.644;9.006;2022-09-13T03:57:45;6.53;;;3.60;;
21905;SDS011;11117;48.644;9.006;2022-09-13T04:00:12;6.13;;;3.30;;
21905;SDS011;11117;48.644;9.006;2022-09-13T04:02:38;7.83;;;3.40;;
21905;SDS011;11117;48.644;9.006;2022-09-13T04:05:04;6.50;;;3.80;;
21905;SDS011;11117;48.644;9.006;2022-09-13T04:07:30;7.97;;;3.83;;
21905;SDS011;11117;48.644;9.006;2022-09-13T04:09:55;9.17;;;3.43;;
21905;SDS011;11117;48.644;9.006;2022-09-13T04:12:21;4.53;;;3.60;;
21905;SDS011;11117;48.644;9.006;2022-09-13T04:14:47;5.73;;;3.73;;
21905;SDS011;11117;48.644;9.006;2022-09-13T04:17:13;6.80;;;3.40;;
21905;SDS011;11117;48.644;9.006;2022-09-13T04:19:39;4.83;;;3.50;;
21905;SDS011;11117;48.644;9.006;2022-09-13T04:22:05;3.77;;;3.33;;
21905;SDS011;11117;48.644;9.006;2022-09-13T04:24:31;5.43;;;4.17;;
21905;SDS011;11117;48.644;9.006;2022-09-13T04:26:57;7.03;;;4.00;;
21905;SDS011;11117;48.644;9.006;2022-09-13T04:29:24;5.17;;;3.67;;
21905;SDS011;11117;48.644;9.006;2022-09-13T04:31:51;6.33;;;3.80;;
21905;SDS011;11117;48.644;9.006;2022-09-13T04:34:18;7.57;;;3.73;;
21905;SDS011;11117;48.644;9.006;2022-09-13T04:36:44;7.05;;;3.50;;
21905;SDS011;11117;48.644;9.006;2022-09-13T04:39:10;7.00;;;3.60;;
21905;SDS011;11117;48.644;9.006;2022-09-13T04:41:36;6.20;;;4.43;;
21905;SDS011;11117;48.644;9.006;2022-09-13T04:44:01;7.73;;;3.90;;
21905;SDS011;11117;48.644;9.006;2022-09-13T04:46:27;6.07;;;4.00;;
21905;SDS011;11117;48.644;9.006;2022-09-13T04:48:56;4.93;;;3.90;;
21905;SDS011;11117;48.644;9.006;2022-09-13T04:51:22;5.30;;;3.80;;
21905;SDS011;11117;48.644;9.006;2022-09-13T04:53:54;7.13;;;4.23;;
21905;SDS011;11117;48.644;9.006;2022-09-13T04:56:20;8.73;;;3.80;;
21905;SDS011;11117;48.644;9.006;2022-09-13T04:58:46;7.17;;;4.27;;
21905;SDS011;11117;48.644;9.006;2022-09-13T05:01:12;7.53;;;4.67;;
21905;SDS011;11117;48.644;9.006;2022-09-13T05:03:37;4.87;;;4.30;;
21905;SDS011;11117;48.644;9.006;2022-09-13T05:06:13;8.10;;;4.93;;
21905;SDS011;11117;48.644;9.006;2022-09-13T05:08:39;7.80;;;4.33;;
21905;SDS011;11117;48.644;9.006;2022-09-13T05:11:05;6.77;;;4.30;;
21905;SDS011;11117;48.644;9.006;2022-09-13T05:13:32;7.83;;;4.17;;
21905;SDS011;11117;48.644;9.006;2022-09-13T05:15:59;10.27;;;4.53;;
21905;SDS011;11117;48.644;9.006;2022-09-13T05:18:27;6.03;;;4.10;;
21905;SDS011;11117;48.644;9.006;2022-09-13T05:20:54;6.40;;;4.37;;
21905;SDS011;11117;48.644;9.006;2022-09-13T05:23:21;6.17;;;4.50;;
21905;SDS011;11117;48.644;9.006;2022-09-13T05:25:57;5.63;;;4.27;;
21905;SDS011;11117;48.644;9.006;2022-09-13T05:28:28;11.20;;;4.33;;
21905;SDS011;11117;48.644;9.006;2022-09-13T05:33:26;4.73;;;3.67;;
21905;SDS011;11117;48.644;9.006;2022-09-13T05:35:53;5.77;;;3.10;;
21905;SDS011;11117;48.644;9.006;2022-09-13T05:38:19;11.80;;;3.87;;
21905;SDS011;11117;48.644;9.006;2022-09-13T05:40:45;9.80;;;4.07;;
21905;SDS011;11117;48.644;9.006;2022-09-13T05:43:11;5.17;;;4.20;;
21905;SDS011;11117;48.644;9.006;2022-09-13T05:45:36;7.27;;;3.80;;
21905;SDS011;11117;48.644;9.006;2022-09-13T05:48:02;5.60;;;3.60;;
21905;SDS011;11117;48.644;9.006;2022-09-13T05:50:28;6.70;;;3.83;;
21905;SDS011;11117;48.644;9.006;2022-09-13T05:52:54;4.77;;;3.67;;
21905;SDS011;11117;48.644;9.006;2022-09-13T05:55:20;6.50;;;3.80;;
21905;SDS011;11117;48.644;9.006;2022-09-13T05:57:47;7.33;;;4.10;;
21905;SDS011;11117;48.644;9.006;2022-09-13T06:00:13;7.03;;;3.53;;
21905;SDS011;11117;48.644;9.006;2022-09-13T06:02:39;8.60;;;4.00;;
21905;SDS011;11117;48.644;9.006;2022-09-13T06:05:05;5.30;;;3.67;;
21905;SDS011;11117;48.644;9.006;2022-09-13T06:07:34;5.10;;;3.53;;
21905;SDS011;11117;48.644;9.006;2022-09-13T06:09:59;5.57;;;3.87;;
21905;SDS011;11117;48.644;9.006;2022-09-13T06:12:25;5.33;;;3.40;;
21905;SDS011;11117;48.644;9.006;2022-09-13T06:14:50;3.93;;;3.10;;
21905;SDS011;11117;48.644;9.006;2022-09-13T06:17:16;4.83;;;3.40;;
21905;SDS011;11117;48.644;9.006;2022-09-13T06:19:42;6.23;;;3.53;;
21905;SDS011;11117;48.644;9.006;2022-09-13T06:22:07;5.17;;;3.13;;
21905;SDS011;11117;48.644;9.006;2022-09-13T06:24:33;8.53;;;3.63;;
21905;SDS011;11117;48.644;9.006;2022-09-13T06:26:58;6.63;;;3.27;;
21905;SDS011;11117;48.644;9.006;2022-09-13T06:29:24;4.90;;;3.13;;
21905;SDS011;11117;48.644;9.006;2022-09-13T06:31:49;5.67;;;3.40;;
21905;SDS011;11117;48.644;9.006;2022-09-13T06:34:15;5.93;;;3.30;;
21905;SDS011;11117;48.644;9.006;2022-09-13T06:36:41;7.53;;;3.57;;
21905;SDS011;11117;48.644;9.006;2022-09-13T06:39:07;6.10;;;3.03;;
21905;SDS011;11117;48.644;9.006;2022-09-13T06:41:32;6.83;;;3.20;;
21905;SDS011;11117;48.644;9.006;2022-09-13T06:43:59;9.20;;;3.13;;
21905;SDS011;11117;48.644;9.006;2022-09-13T06:46:26;4.20;;;3.00;;
21905;SDS011;11117;48.644;9.006;2022-09-13T06:48:54;5.83;;;2.90;;
21905;SDS011;11117;48.644;9.006;2022-09-13T06:51:22;5.73;;;2.93;;
21905;SDS011;11117;48.644;9.006;2022-09-13T06:53:49;8.77;;;2.93;;
21905;SDS011;11117;48.644;9.006;2022-09-13T06:56:29;3.73;;;2.50;;
21905;SDS011;11117;48.644;9.006;2022-09-13T06:59:03;5.00;;;2.47;;
21905;SDS011;11117;48.644;9.006;2022-09-13T07:01:37;7.53;;;2.67;;
21905;SDS011;11117;48.644;9.006;2022-09-13T07:04:05;4.37;;;2.50;;
21905;SDS011;11117;48.644;9.006;2022-09-13T07:06:34;5.75;;;2.47;;
21905;SDS011;11117;48.644;9.006;2022-09-13T07:09:03;3.55;;;2.20;;
21905;SDS011;11117;48.644;9.006;2022-09-13T07:11:31;3.05;;;2.30;;
21905;SDS011;11117;48.644;9.006;2022-09-13T07:13:59;8.70;;;2.20;;
21905;SDS011;11117;48.644;9.006;2022-09-13T07:16:26;5.45;;;2.00;;
21905;SDS011;11117;48.644;9.006;2022-09-13T07:18:56;3.58;;;2.20;;
21905;SDS011;11117;48.644;9.006;2022-09-13T07:21:36;2.92;;;2.25;;
21905;SDS011;11117;48.644;9.006;2022-09-13T07:24:01;6.65;;;2.20;;
21905;SDS011;11117;48.644;9.006;2022-09-13T07:26:27;4.85;;;2.30;;
21905;SDS011;11117;48.644;9.006;2022-09-13T07:28:54;4.63;;;2.05;;
21905;SDS011;11117;48.644;9.006;2022-09-13T07:31:22;6.28;;;2.15;;
21905;SDS011;11117;48.644;9.006;2022-09-13T07:33:52;3.45;;;2.15;;
21905;SDS011;11117;48.644;9.006;2022-09-13T07:36:19;4.63;;;1.90;;
21905;SDS011;11117;48.644;9.006;2022-09-13T07:38:44;6.28;;;2.20;;
21905;SDS011;11117;48.644;9.006;2022-09-13T07:41:11;2.95;;;1.75;;
21905;SDS011;11117;48.644;9.006;2022-09-13T07:43:37;4.55;;;1.88;;
21905;SDS011;11117;48.644;9.006;2022-09-13T07:48:30;3.38;;;1.88;;
21905;SDS011;11117;48.644;9.006;2022-09-13T07:53:32;5.95;;;1.83;;
21905;SDS011;11117;48.644;9.006;2022-09-13T07:56:09;4.43;;;1.65;;
21905;SDS011;11117;48.644;9.006;2022-09-13T07:58:37;4.50;;;1.55;;
21905;SDS011;11117;48.644;9.006;2022-09-13T08:03:33;1.70;;;1.50;;
21905;SDS011;11117;48.644;9.006;2022-09-13T08:05:59;2.40;;;1.30;;
21905;SDS011;11117;48.644;9.006;2022-09-13T08:08:25;3.45;;;1.67;;
21905;SDS011;11117;48.644;9.006;2022-09-13T08:10:51;1.73;;;1.20;;
21905;SDS011;11117;48.644;9.006;2022-09-13T08:13:16;7.43;;;1.50;;
21905;SDS011;11117;48.644;9.006;2022-09-13T08:15:42;7.55;;;1.48;;
21905;SDS011;11117;48.644;9.006;2022-09-13T08:18:08;10.05;;;1.33;;
21905;SDS011;11117;48.644;9.006;2022-09-13T08:20:35;5.50;;;1.20;;
21905;SDS011;11117;48.644;9.006;2022-09-13T08:23:01;2.40;;;1.58;;
21905;SDS011;11117;48.644;9.006;2022-09-13T08:25:27;1.95;;;1.48;;
21905;SDS011;11117;48.644;9.006;2022-09-13T08:27:52;5.35;;;1.58;;
21905;SDS011;11117;48.644;9.006;2022-09-13T08:30:18;5.50;;;1.50;;
21905;SDS011;11117;48.644;9.006;2022-09-13T08:32:43;3.35;;;1.40;;
21905;SDS011;11117;48.644;9.006;2022-09-13T08:35:09;2.22;;;1.38;;
21905;SDS011;11117;48.644;9.006;2022-09-13T08:37:34;3.10;;;1.45;;
21905;SDS011;11117;48.644;9.006;2022-09-13T08:40:00;1.50;;;1.10;;
21905;SDS011;11117;48.644;9.006;2022-09-13T08:42:28;1.98;;;1.42;;
21905;SDS011;11117;48.644;9.006;2022-09-13T08:44:55;1.15;;;1.02;;
21905;SDS011;11117;48.644;9.006;2022-09-13T08:47:26;4.03;;;1.10;;
21905;SDS011;11117;48.644;9.006;2022-09-13T08:55:18;1.05;;;0.90;;
21905;SDS011;11117;48.644;9.006;2022-09-13T09:00:37;5.28;;;1.10;;
21905;SDS011;11117;48.644;9.006;2022-09-13T09:03:11;2.42;;;1.30;;
21905;SDS011;11117;48.644;9.006;2022-09-13T09:05:48;4.85;;;1.30;;
21905;SDS011;11117;48.644;9.006;2022-09-13T09:08:23;4.43;;;1.20;;
21905;SDS011;11117;48.644;9.006;2022-09-13T09:10:50;5.63;;;1.02;;
21905;SDS011;11117;48.644;9.006;2022-09-13T09:13:29;2.65;;;0.90;;
21905;SDS011;11117;48.644;9.006;2022-09-13T09:16:00;3.40;;;1.00;;
21905;SDS011;11117;48.644;9.006;2022-09-13T09:18:31;3.88;;;1.02;;
21905;SDS011;11117;48.644;9.006;2022-09-13T09:21:02;3.25;;;1.08;;
21905;SDS011;11117;48.644;9.006;2022-09-13T09:23:35;4.45;;;0.90;;
21905;SDS011;11117;48.644;9.006;2022-09-13T09:26:23;8.70;;;1.48;;
21905;SDS011;11117;48.644;9.006;2022-09-13T09:31:28;1.23;;;1.10;;
21905;SDS011;11117;48.644;9.006;2022-09-13T09:36:58;3.30;;;0.90;;
21905;SDS011;11117;48.644;9.006;2022-09-13T09:39:44;2.50;;;0.93;;
21905;SDS011;11117;48.644;9.006;2022-09-13T09:42:44;1.80;;;0.70;;
21905;SDS011;11117;48.644;9.006;2022-09-13T09:45:24;2.58;;;0.50;;
21905;SDS011;11117;48.644;9.006;2022-09-13T09:47:52;1.20;;;0.50;;
21905;SDS011;11117;48.644;9.006;2022-09-13T09:50:23;0.70;;;0.70;;
21905;SDS011;11117;48.644;9.006;2022-09-13T09:56:00;1.30;;;0.68;;
21905;SDS011;11117;48.644;9.006;2022-09-13T09:58:40;2.70;;;0.70;;
21905;SDS011;11117;48.644;9.006;2022-09-13T10:06:36;0.85;;;0.70;;
21905;SDS011;11117;48.644;9.006;2022-09-13T10:09:06;1.00;;;0.50;;
21905;SDS011;11117;48.644;9.006;2022-09-13T10:14:21;1.10;;;0.50;;
21905;SDS011;11117;48.644;9.006;2022-09-13T10:16:56;2.85;;;0.70;;
21905;SDS011;11117;48.644;9.006;2022-09-13T10:19:27;0.63;;;0.63;;
21905;SDS011;11117;48.644;9.006;2022-09-13T10:21:59;1.15;;;0.50;;
21905;SDS011;11117;48.644;9.006;2022-09-13T10:24:29;1.48;;;0.60;;
21905;SDS011;11117;48.644;9.006;2022-09-13T10:26:55;1.52;;;0.60;;
21905;SDS011;11117;48.644;9.006;2022-09-13T10:29:22;1.20;;;0.63;;
21905;SDS011;11117;48.644;9.006;2022-09-13T10:31:50;2.67;;;0.60;;
21905;SDS011;11117;48.644;9.006;2022-09-13T10:34:19;0.80;;;0.60;;
21905;SDS011;11117;48.644;9.006;2022-09-13T10:39:20;1.80;;;0.70;;
21905;SDS011;11117;48.644;9.006;2022-09-13T10:42:05;1.13;;;0.63;;
21905;SDS011;11117;48.644;9.006;2022-09-13T10:47:10;2.65;;;0.60;;
21905;SDS011;11117;48.644;9.006;2022-09-13T10:49:47;0.88;;;0.57;;
21905;SDS011;11117;48.644;9.006;2022-09-13T10:54:49;2.25;;;0.60;;
21905;SDS011;11117;48.644;9.006;2022-09-13T10:57:34;2.60;;;0.50;;
21905;SDS011;11117;48.644;9.006;2022-09-13T11:00:04;1.95;;;0.70;;
21905;SDS011;11117;48.644;9.006;2022-09-13T11:08:45;2.10;;;0.60;;
21905;SDS011;11117;48.644;9.006;2022-09-13T11:24:54;1.15;;;0.43;;
21905;SDS011;11117;48.644;9.006;2022-09-13T11:30:56;0.65;;;0.30;;
21905;SDS011;11117;48.644;9.006;2022-09-13T11:41:54;0.40;;;0.40;;
21905;SDS011;11117;48.644;9.006;2022-09-13T11:53:05;1.52;;;0.47;;
21905;SDS011;11117;48.644;9.006;2022-09-13T11:55:42;4.03;;;0.32;;
21905;SDS011;11117;48.644;9.006;2022-09-13T11:58:15;0.30;;;0.30;;
21905;SDS011;11117;48.644;9.006;2022-09-13T12:00:47;1.02;;;0.40;;
21905;SDS011;11117;48.644;9.006;2022-09-13T12:03:24;0.30;;;0.30;;
21905;SDS011;11117;48.644;9.006;2022-09-13T12:06:03;0.65;;;0.30;;
21905;SDS011;11117;48.644;9.006;2022-09-13T12:08:52;1.05;;;0.40;;
21905;SDS011;11117;48.644;9.006;2022-09-13T12:11:31;2.25;;;0.40;;
21905;SDS011;11117;48.644;9.006;2022-09-13T12:14:12;0.73;;;0.50;;
21905;SDS011;11117;48.644;9.006;2022-09-13T12:16:43;0.80;;;0.40;;
21905;SDS011;11117;48.644;9.006;2022-09-13T12:19:17;4.03;;;0.43;;
21905;SDS011;11117;48.644;9.006;2022-09-13T12:21:58;1.25;;;0.43;;
21905;SDS011;11117;48.644;9.006;2022-09-13T12:27:11;0.63;;;0.35;;
21905;SDS011;11117;48.644;9.006;2022-09-13T12:29:56;0.68;;;0.40;;
21905;SDS011;11117;48.644;9.006;2022-09-13T12:32:29;3.22;;;0.60;;
21905;SDS011;11117;48.644;9.006;2022-09-13T12:34:57;2.25;;;0.50;;
21905;SDS011;11117;48.644;9.006;2022-09-13T12:59:48;2.03;;;0.50;;
21905;SDS011;11117;48.644;9.006;2022-09-13T13:02:36;1.42;;;0.70;;
21905;SDS011;11117;48.644;9.006;2022-09-13T13:05:06;3.95;;;0.55;;
21905;SDS011;11117;48.644;9.006;2022-09-13T13:07:52;1.23;;;0.40;;
21905;SDS011;11117;48.644;9.006;2022-09-13T13:10:22;2.83;;;0.75;;
21905;SDS011;11117;48.644;9.006;2022-09-13T13:13:25;1.67;;;0.50;;
21905;SDS011;11117;48.644;9.006;2022-09-13T13:19:26;0.93;;;0.60;;
21905;SDS011;11117;48.644;9.006;2022-09-13T13:21:55;2.40;;;0.50;;
21905;SDS011;11117;48.644;9.006;2022-09-13T13:25:22;4.43;;;0.50;;
21905;SDS011;11117;48.644;9.006;2022-09-13T13:28:02;1.17;;;0.70;;
21905;SDS011;11117;48.644;9.006;2022-09-13T13:30:38;2.45;;;0.65;;
21905;SDS011;11117;48.644;9.006;2022-09-13T13:33:21;0.75;;;0.50;;
21905;SDS011;11117;48.644;9.006;2022-09-13T13:35:48;1.95;;;0.60;;
21905;SDS011;11117;48.644;9.006;2022-09-13T13:38:33;3.33;;;0.65;;
21905;SDS011;11117;48.644;9.006;2022-09-13T13:41:05;1.20;;;0.40;;
21905;SDS011;11117;48.644;9.006;2022-09-13T13:43:51;3.38;;;0.60;;
21905;SDS011;11117;48.644;9.006;2022-09-13T13:48:53;3.40;;;0.47;;
21905;SDS011;11117;48.644;9.006;2022-09-13T13:51:23;0.93;;;0.50;;
21905;SDS011;11117;48.644;9.006;2022-09-13T13:54:01;0.45;;;0.30;;
21905;SDS011;11117;48.644;9.006;2022-09-13T13:56:47;1.05;;;0.45;;
21905;SDS011;11117;48.644;9.006;2022-09-13T13:59:15;1.90;;;0.40;;
21905;SDS011;11117;48.644;9.006;2022-09-13T14:01:55;0.85;;;0.50;;
21905;SDS011;11117;48.644;9.006;2022-09-13T14:10:42;0.88;;;0.50;;
21905;SDS011;11117;48.644;9.006;2022-09-13T14:21:44;1.88;;;0.20;;
21905;SDS011;11117;48.644;9.006;2022-09-13T14:24:20;1.60;;;0.55;;
21905;SDS011;11117;48.644;9.006;2022-09-13T14:26:48;1.42;;;0.55;;
21905;SDS011;11117;48.644;9.006;2022-09-13T14:29:21;2.75;;;0.50;;
21905;SDS011;11117;48.644;9.006;2022-09-13T14:31:48;0.70;;;0.60;;
21905;SDS011;11117;48.644;9.006;2022-09-13T14:34:29;1.60;;;0.40;;
21905;SDS011;11117;48.644;9.006;2022-09-13T14:36:57;1.40;;;0.50;;
21905;SDS011;11117;48.644;9.006;2022-09-13T14:39:25;2.20;;;0.50;;
21905;SDS011;11117;48.644;9.006;2022-09-13T14:44:43;0.65;;;0.50;;
21905;SDS011;11117;48.644;9.006;2022-09-13T14:47:24;1.65;;;0.50;;
21905;SDS011;11117;48.644;9.006;2022-09-13T14:50:00;0.45;;;0.40;;
21905;SDS011;11117;48.644;9.006;2022-09-13T14:52:34;2.92;;;0.60;;
21905;SDS011;11117;48.644;9.006;2022-09-13T14:55:10;0.63;;;0.32;;
21905;SDS011;11117;48.644;9.006;2022-09-13T14:57:46;1.23;;;0.60;;
21905;SDS011;11117;48.644;9.006;2022-09-13T15:00:17;0.75;;;0.40;;
21905;SDS011;11117;48.644;9.006;2022-09-13T15:02:48;1.08;;;0.40;;
21905;SDS011;11117;48.644;9.006;2022-09-13T15:05:26;3.92;;;0.50;;
21905;SDS011;11117;48.644;9.006;2022-09-13T15:07:54;4.00;;;0.50;;
21905;SDS011;11117;48.644;9.006;2022-09-13T15:10:21;1.98;;;0.50;;
21905;SDS011;11117;48.644;9.006;2022-09-13T15:15:45;0.80;;;0.40;;
21905;SDS011;11117;48.644;9.006;2022-09-13T15:20:46;1.30;;;0.40;;
21905;SDS011;11117;48.644;9.006;2022-09-13T15:26:05;3.30;;;0.50;;
21905;SDS011;11117;48.644;9.006;2022-09-13T15:28:33;2.47;;;0.43;;
21905;SDS011;11117;48.644;9.006;2022-09-13T15:31:04;1.95;;;0.50;;
21905;SDS011;11117;48.644;9.006;2022-09-13T15:33:31;0.40;;;0.40;;
21905;SDS011;11117;48.644;9.006;2022-09-13T15:36:14;0.98;;;0.30;;
21905;SDS011;11117;48.644;9.006;2022-09-13T15:41:34;0.30;;;0.20;;
21905;SDS011;11117;48.644;9.006;2022-09-13T15:44:02;1.33;;;0.40;;
21905;SDS011;11117;48.644;9.006;2022-09-13T15:46:45;2.90;;;0.47;;
21905;SDS011;11117;48.644;9.006;2022-09-13T15:49:15;0.55;;;0.40;;
21905;SDS011;11117;48.644;9.006;2022-09-13T15:51:42;1.85;;;0.60;;
21905;SDS011;11117;48.644;9.006;2022-09-13T15:54:12;2.25;;;0.40;;
21905;SDS011;11117;48.644;9.006;2022-09-13T15:56:40;0.75;;;0.25;;
21905;SDS011;11117;48.644;9.006;2022-09-13T15:59:10;3.55;;;0.35;;
21905;SDS011;11117;48.644;9.006;2022-09-13T16:01:38;2.38;;;0.50;;
21905;SDS011;11117;48.644;9.006;2022-09-13T16:04:04;0.68;;;0.40;;
21905;SDS011;11117;48.644;9.006;2022-09-13T16:06:29;2.70;;;0.40;;
21905;SDS011;11117;48.644;9.006;2022-09-13T16:08:55;0.40;;;0.30;;
21905;SDS011;11117;48.644;9.006;2022-09-13T16:11:20;1.40;;;0.30;;
21905;SDS011;11117;48.644;9.006;2022-09-13T16:13:46;2.25;;;0.30;;
21905;SDS011;11117;48.644;9.006;2022-09-13T16:16:12;1.73;;;0.30;;
21905;SDS011;11117;48.644;9.006;2022-09-13T16:18:38;1.13;;;0.38;;
21905;SDS011;11117;48.644;9.006;2022-09-13T16:21:03;0.50;;;0.50;;
21905;SDS011;11117;48.644;9.006;2022-09-13T16:23:29;3.72;;;0.40;;
21905;SDS011;11117;48.644;9.006;2022-09-13T16:25:56;2.38;;;0.30;;
21905;SDS011;11117;48.644;9.006;2022-09-13T16:28:25;1.90;;;0.50;;
21905;SDS011;11117;48.644;9.006;2022-09-13T16:30:51;1.88;;;0.60;;
21905;SDS011;11117;48.644;9.006;2022-09-13T16:33:17;1.40;;;0.65;;
21905;SDS011;11117;48.644;9.006;2022-09-13T16:35:43;0.80;;;0.47;;
21905;SDS011;11117;48.644;9.006;2022-09-13T16:38:09;1.80;;;0.60;;
21905;SDS011;11117;48.644;9.006;2022-09-13T16:40:37;0.57;;;0.50;;
21905;SDS011;11117;48.644;9.006;2022-09-13T16:43:06;10.90;;;0.77;;
21905;SDS011;11117;48.644;9.006;2022-09-13T16:45:32;2.20;;;0.40;;
21905;SDS011;11117;48.644;9.006;2022-09-13T16:47:58;0.82;;;0.55;;
21905;SDS011;11117;48.644;9.006;2022-09-13T16:50:23;3.80;;;0.85;;
21905;SDS011;11117;48.644;9.006;2022-09-13T16:52:49;2.53;;;0.90;;
21905;SDS011;11117;48.644;9.006;2022-09-13T16:55:15;5.38;;;2.13;;
21905;SDS011;11117;48.644;9.006;2022-09-13T16:57:40;2.30;;;0.93;;
21905;SDS011;11117;48.644;9.006;2022-09-13T17:00:06;2.00;;;0.70;;
21905;SDS011;11117;48.644;9.006;2022-09-13T17:02:32;2.63;;;0.90;;
21905;SDS011;11117;48.644;9.006;2022-09-13T17:04:57;1.27;;;0.70;;
21905;SDS011;11117;48.644;9.006;2022-09-13T17:07:23;0.73;;;0.63;;
21905;SDS011;11117;48.644;9.006;2022-09-13T17:09:48;0.80;;;0.55;;
21905;SDS011;11117;48.644;9.006;2022-09-13T17:12:14;1.45;;;0.90;;
21905;SDS011;11117;48.644;9.006;2022-09-13T17:14:40;2.20;;;0.73;;
21905;SDS011;11117;48.644;9.006;2022-09-13T17:17:06;3.03;;;0.80;;
21905;SDS011;11117;48.644;9.006;2022-09-13T17:19:32;2.88;;;1.00;;
21905;SDS011;11117;48.644;9.006;2022-09-13T17:21:58;0.82;;;0.63;;
21905;SDS011;11117;48.644;9.006;2022-09-13T17:24:26;2.10;;;0.75;;
21905;SDS011;11117;48.644;9.006;2022-09-13T17:26:53;2.13;;;0.95;;
21905;SDS011;11117;48.644;9.006;2022-09-13T17:29:19;2.75;;;1.00;;
21905;SDS011;11117;48.644;9.006;2022-09-13T17:31:44;2.47;;;0.90;;
21905;SDS011;11117;48.644;9.006;2022-09-13T17:34:10;1.52;;;1.02;;
21905;SDS011;11117;48.644;9.006;2022-09-13T17:36:37;2.63;;;1.10;;
21905;SDS011;11117;48.644;9.006;2022-09-13T17:39:03;3.88;;;1.00;;
21905;SDS011;11117;48.644;9.006;2022-09-13T17:41:29;2.53;;;1.00;;
21905;SDS011;11117;48.644;9.006;2022-09-13T17:43:55;4.85;;;1.20;;
21905;SDS011;11117;48.644;9.006;2022-09-13T17:46:22;2.88;;;1.00;;
21905;SDS011;11117;48.644;9.006;2022-09-13T17:48:50;3.92;;;1.42;;
21905;SDS011;11117;48.644;9.006;2022-09-13T17:51:17;2.00;;;1.13;;
21905;SDS011;11117;48.644;9.006;2022-09-13T17:53:45;2.33;;;1.52;;
21905;SDS011;11117;48.644;9.006;2022-09-13T17:58:53;1.92;;;1.30;;
21905;SDS011;11117;48.644;9.006;2022-09-13T18:01:19;2.08;;;1.13;;
21905;SDS011;11117;48.644;9.006;2022-09-13T18:03:44;6.93;;;1.20;;
21905;SDS011;11117;48.644;9.006;2022-09-13T18:06:10;5.70;;;1.23;;
21905;SDS011;11117;48.644;9.006;2022-09-13T18:08:36;3.75;;;1.42;;
21905;SDS011;11117;48.644;9.006;2022-09-13T18:11:06;5.30;;;1.33;;
21905;SDS011;11117;48.644;9.006;2022-09-13T18:13:34;3.40;;;1.52;;
21905;SDS011;11117;48.644;9.006;2022-09-13T18:16:02;3.95;;;1.60;;
21905;SDS011;11117;48.644;9.006;2022-09-13T18:18:29;4.20;;;1.77;;
21905;SDS011;11117;48.644;9.006;2022-09-13T18:20:55;4.45;;;1.80;;
21905;SDS011;11117;48.644;9.006;2022-09-13T18:23:21;3.38;;;1.52;;
21905;SDS011;11117;48.644;9.006;2022-09-13T18:25:57;2.42;;;1.50;;
21905;SDS011;11117;48.644;9.006;2022-09-13T18:28:22;3.10;;;1.27;;